Tiempo atmosférico en la estación meteorológica de Cabo Busto, Asturias (63 m.)

Fecha
DESCASC
Temp. máxima en grados centígrados (hora)
DESCASC
Temp. mínima en grados centígrados (hora)
DESCASC
Temp. media en grados centígrados
DESCASC
Racha de viento máxima en m/sg (hora)
DESCASC
Velocidad máxima media en intervalos de 10 minutos(hora)
DESCASC
Precipitaciones diarias en mm
DESCASC
Precipitaciones de 00:00 a 06:00 en mm
DESCASC
Precipitaciones de 06:00 a 12:00 en mm
DESCASC
Precipitaciones de 12:00 a 18:00 en mm
DESCASC
Precipitaciones de 18:00 a 24:00 en mm
DESCASC
14-12-2017 14.1 (12:20) 11.7 (06:50) 12.9 21.11 (22:10) 16.94 (22:10) 2.6 1.4 1 0 0.2
13-12-2017 16.5 (13:50) 12.5 (05:40) 14.5 22.78 (14:30) 15.83 (15:30) 0.6 0 0 0.4 0.2
12-12-2017 12.8 (23:59) 6.1 (04:00) 9.5 15.28 (04:40) 10.28 (04:40) 11.4 5.2 6 0.2 0
11-12-2017 11 (15:20) 7 (12:10) 9 28.33 (14:30) 23.61 (14:30) 22.6 7.2 6.8 7.2 1.4
10-12-2017 17.2 (10:30) 9.2 (00:00) 13.2 36.94 (21:20) 18.89 (22:00) 33.8 1.6 9.2 11.6 11.4
09-12-2017 16.9 (21:40) 8.9 (00:00) 12.9 21.39 (18:50) 15.56 (18:50) 2.4 0.6 1.2 0.4 0.2
08-12-2017 15.6 (00:00) 9.5 (00:00) 12.6 13.06 (00:20) 10.28 (00:20) 21.6 2.8 12.2 5.6 1
07-12-2017 17.7 (13:00) 8.6 (00:00) 13.2 18.06 (15:50) 11.11 (15:50) 2.8 0 0 2.8 0
06-12-2017 13.2 (16:30) 3.4 (00:00) 8.3 8.06 (07:50) 6.39 (09:10) 0 0 0 0 0
05-12-2017 13.5 (15:00) 3.9 (00:00) 8.7 -- (--) -- (--) 0 0 0 0 0
04-12-2017 13.1 (14:00) 5.4 (00:00) 9.3 -- (--) -- (--) 0 0 0 0 0
03-12-2017 13.2 (15:00) 4.6 (00:00) 8.9 -- (--) -- (--) 1.2 1.2 0 0 0
02-12-2017 11.7 (13:10) 5 (00:00) 8.3 -- (--) -- (--) 7.8 0.8 2.8 3 1.2
01-12-2017 11.3 (07:40) 4.9 (00:00) 8.1 -- (--) -- (--) 14.8 5.6 6.8 0.8 1.6
30-11-2017 10.8 (13:50) 4 (00:00) 7.4 -- (--) -- (--) 10.2 2 5.8 1 1.4
29-11-2017 11.8 (14:50) 5.1 (00:00) 8.5 16.39 (09:50) 9.72 (09:40) -- -- -- 2.4 1.8
28-11-2017 13.7 (13:50) 4.1 (00:00) 8.9 16.39 (17:20) 9.44 (18:10) -- -- -- -- --
27-11-2017 12.9 (15:50) 4.6 (00:00) 8.7 8.06 (00:20) 6.11 (23:59) -- -- -- -- --
26-11-2017 12.8 (13:10) 4.7 (00:00) 8.8 13.61 (13:50) 6.39 (04:20) -- -- -- -- --
25-11-2017 12.1 (13:10) 6.8 (00:00) 9.5 13.06 (11:50) 5.56 (23:50) -- -- -- -- --
24-11-2017 15.5 (00:00) 11.5 (00:00) 13.5 14.17 (23:00) 6.67 (23:40) -- -- -- -- --
23-11-2017 21.6 (12:50) 14.7 (00:00) 18.2 17.22 (00:20) 11.94 (09:50) 0 0 0 0 0
22-11-2017 24.1 (12:40) 10.4 (00:00) 17.3 38.61 (21:30) 21.94 (20:40) 0 0 0 0 0
21-11-2017 18.9 (13:00) 8.3 (00:00) 13.6 9.72 (08:50) 7.22 (20:50) 0 0 0 0 0
20-11-2017 18.1 (15:50) 6.8 (00:00) 12.5 8.89 (00:30) 7.22 (00:30) 0 0 0 0 0
19-11-2017 14.4 (15:50) 6.4 (00:00) 10.4 12.78 (13:50) 6.67 (13:30) 0 0 0 0 0
18-11-2017 15.2 (14:40) 8.7 (00:00) 11.9 17.22 (15:50) 9.17 (15:50) 0 0 0 0 0
17-11-2017 14.9 (12:40) 10.6 (00:00) 12.8 9.17 (15:00) 5 (03:10) 0 0 0 0 0

Gráficas

Temp. máximas Temp. mínimas Temp. medias Precipitaciones Rachas de viento máximas Velocidades máximas media en intervalos de 10 minutos

Datos horarios

Fecha y hora oficial Temperatura (ºC) Velocidad del viento (km/h) Dirección del viento Racha (km/h) Dirección de racha Precipitación (mm) Presión (hPa) Tendencia (hPa) Humedad (%)
2017-12-16 23:00:00 6.3 18 Sudeste 25 Sudeste 0 1023.5 1.2 82
2017-12-16 22:00:00 6.4 17 Sudeste 24 Sudeste 0 1023.1 1.6 84
2017-12-16 21:00:00 6.5 20 Sur 23 Sur 0 1022.7 2.1 85
2017-12-16 20:00:00 7.7 14 Sur 21 Sur 0 1022.3 2.2 81
2017-12-16 19:00:00 8.1 12 Sur 17 Sur 0 1021.5 2.2 79
2017-12-16 18:00:00 9.5 13 Sur 20 Oeste 0 1020.6 1.7 72
2017-12-16 17:00:00 11.8 7 Oeste 22 Oeste 0 1020.1 1.2 68
2017-12-16 16:00:00 11.4 18 Oeste 25 Oeste 0 1019.3 0.5 64
2017-12-16 15:00:00 10.9 19 Noroeste 33 Noroeste 0 1018.9 -0.1 61
2017-12-16 14:00:00 11.6 14 Noroeste 28 Norte 0 1018.9 0.6 54
2017-12-16 13:00:00 11.2 9 Noroeste 26 Oeste 0 1018.8 1.6 64
2017-12-16 12:00:00 9.9 11 Sur 17 Sur 0 1019 2.7 78
2017-12-16 11:00:00 9.7 12 Sur 22 Sur 0 1018.3 2.7 79
2017-12-16 10:00:00 7.5 18 Sur 22 Sur 0 1017.2 2.4 84
2017-12-16 09:00:00 7.1 15 Sur 22 Sur 0 1016.3 1.7 85
2017-12-16 08:00:00 7.2 14 Sur 23 Sudeste 0 1015.6 1.3 84
2017-12-16 07:00:00 7.6 17 Sudeste 21 Sudeste 0 1014.8 0.9 84
2017-12-16 06:00:00 9.1 12 Sur 37 Oeste 1.6 1014.6 1.5 75
2017-12-16 05:00:00 8.9 14 Sudoeste 27 Oeste 0.4 1014.3 1.4 81
2017-12-16 04:00:00 10.6 14 Noroeste 54 Noroeste 0.2 1013.9 1.2 70
2017-12-16 03:00:00 10.9 24 Norte 37 Noroeste 0 1013.1 0.7 67
2017-12-16 02:00:00 10.8 18 Oeste 51 Oeste 0 1012.9 0.9 72
2017-12-16 01:00:00 11.2 23 Norte 37 Norte 0 1012.7 1.1 65
2017-12-16 00:00:00 10.9 14 Norte 39 Norte 0 1012.4 1.8 69
2017-12-15 23:00:00 10.7 12 Noroeste 31 Norte 0 1012 2.1 75
2017-12-15 22:00:00 10.3 25 Norte 48 Noroeste 0.2 1011.6 2.4 68
2017-12-15 21:00:00 9.9 24 Oeste 44 Oeste 0.2 1010.6 2 80
2017-12-15 20:00:00 9.7 27 Oeste 50 Oeste 0 1009.9 1.7 78
2017-12-15 19:00:00 10.2 21 Oeste 53 Noroeste 0 1009.2 1.6 73
2017-12-15 18:00:00 10.5 46 Noroeste 64 Noroeste 0 1008.6 1.4 67
2017-12-15 17:00:00 10.4 25 Oeste 46 Oeste 0 1008.2 0.9 76
2017-12-15 16:00:00 10.9 32 Oeste 52 Oeste 0 1007.6 -0.3 73
2017-12-15 15:00:00 11.3 28 Oeste 45 Oeste 0 1007.2 -1.1 75
2017-12-15 14:00:00 11.7 35 Oeste 52 Noroeste 0 1007.3 -0.6 75
2017-12-15 13:00:00 10.4 26 Oeste 48 Oeste 0.2 1007.9 0.6 79
2017-12-15 12:00:00 9.9 23 Oeste 36 Oeste 0.2 1008.3 1.4 82
2017-12-15 11:00:00 9.3 26 Oeste 42 Oeste 1 1007.9 1.5 83
2017-12-15 10:00:00 9.6 21 Oeste 40 Oeste 0 1007.3 1.3 83
2017-12-15 09:00:00 9.4 22 Oeste 42 Oeste 0 1006.9 1.3 88
2017-12-15 08:00:00 9.9 34 Oeste 55 Oeste 0.2 1006.4 0.8 83
2017-12-15 07:00:00 9.5 23 Oeste 46 Oeste 1.2 1006 2.1 89
2017-12-15 06:00:00 9.3 23 Oeste 45 Oeste 4 1005.6 1.6 91
2017-12-15 05:00:00 9.4 43 Oeste 88 Noroeste 2.6 1005.6 1.3 91
2017-12-15 04:00:00 11.8 58 Oeste 79 Oeste 0 1003.9 -1.7 67
2017-12-15 03:00:00 12.7 57 Oeste 77 Oeste 0 1004 -1.1 59
2017-12-15 02:00:00 12.6 55 Oeste 75 Oeste 0 1004.3 -1.2 54
2017-12-15 01:00:00 12.5 42 Oeste 79 Oeste 0 1005.6 -0.2 64
2017-12-15 00:00:00 12.5 50 Oeste 73 Oeste 0 1005.1 -0.8 65
2017-12-14 23:00:00 12.8 48 Oeste 76 Oeste 0 1005.5 -0.6 59
2017-12-14 22:00:00 12.6 54 Oeste 69 Oeste 0 1005.8 -0.3 61
2017-12-14 21:00:00 12.7 50 Oeste 73 Oeste 0.2 1005.9 0.2 63
2017-12-14 20:00:00 12.7 32 Oeste 54 Oeste 0 1006.1 -0.2 70
2017-12-14 19:00:00 12.9 40 Oeste 75 Oeste 0 1006.1 -0.5 66
2017-12-14 18:00:00 13.1 42 Oeste 69 Oeste 0 1005.7 -1.6 76
2017-12-14 17:00:00 13.1 43 Oeste 67 Oeste 0 1006.3 -1.5 79
2017-12-14 16:00:00 13.5 30 Oeste 50 Oeste 0 1006.6 -2 85
2017-12-14 15:00:00 13.2 25 Oeste 48 Oeste 0 1007.3 -2.2 88
2017-12-14 14:00:00 12.9 26 Oeste 58 Noroeste 0 1007.8 -2 89
2017-12-14 13:00:00 13.2 37 Oeste 53 Oeste 0 1008.6 -1.3 87
2017-12-14 12:00:00 13.6 18 Oeste 31 Oeste 0 1009.5 -0.6 87
2017-12-14 11:00:00 12.8 8 Noroeste 31 Oeste 0 1009.8 -0.6 89
2017-12-14 10:00:00 12.3 24 Oeste 38 Oeste 0 1009.9 -0.3 89
2017-12-14 09:00:00 12 24 Oeste 40 Oeste 0.2 1010.1 -0.6 90
2017-12-14 08:00:00 12.2 12 Oeste 23 Oeste 0.4 1010.4 -0.8 88
2017-12-14 07:00:00 11.7 13 Sudoeste 31 Oeste 0.4 1010.2 -0.3 89
2017-12-14 06:00:00 12 20 Oeste 43 Oeste 0.4 1010.7 -0.3 89
2017-12-14 05:00:00 12 28 Oeste 66 Oeste 0.8 1011.2 -0.1 89
2017-12-14 04:00:00 12.3 52 Oeste 70 Oeste 0.2 1010.5 -1.2 80
2017-12-14 03:00:00 13.2 31 Oeste 47 Oeste 0 1011 -0.6 88
2017-12-14 02:00:00 13.6 22 Oeste 43 Oeste 0 1011.3 0 85
2017-12-14 01:00:00 13.7 31 Oeste 50 Oeste 0 1011.7 0.6 87
2017-12-14 00:00:00 13.8 24 Oeste 47 Oeste 0 1011.6 0.5 90
2017-12-13 23:00:00 13.6 28 Oeste 74 Oeste 0.2 1011.3 0.9 90
2017-12-13 22:00:00 13.9 31 Oeste 61 Oeste 0 1011.1 1.4 87
2017-12-13 21:00:00 15.4 28 Oeste 64 Oeste 0 1011.1 1.5 75
2017-12-13 20:00:00 16.1 43 Oeste 58 Oeste 0 1010.4 1.2 68
2017-12-13 19:00:00 15.8 39 Oeste 64 Oeste 0 1009.7 0.7 70
2017-12-13 18:00:00 16.1 49 Oeste 75 Oeste 0 1009.6 0.6 65
2017-12-13 17:00:00 16.1 55 Oeste 77 Oeste 0.2 1009.2 -0.1 64
2017-12-13 16:00:00 16.1 52 Oeste 75 Oeste 0 1009 -1.3 62
2017-12-13 15:00:00 16.2 50 Oeste 82 Oeste 0.2 1009 -2 62
2017-12-13 14:00:00 16.2 48 Sudoeste 73 Sudoeste 0 1009.3 -1.5 58
2017-12-13 13:00:00 16.1 50 Oeste 73 Sudoeste 0 1010.3 -0.1 56
2017-12-13 12:00:00 15.9 46 Oeste 74 Sudoeste 0 1011 0 54
2017-12-13 11:00:00 15.3 45 Oeste 69 Oeste 0 1010.8 -0.5 53
2017-12-13 10:00:00 15.2 45 Oeste 69 Oeste 0 1010.4 -1.7 53
2017-12-13 09:00:00 14.7 36 Oeste 72 Oeste 0 1011 -0.4 56
2017-12-13 08:00:00 13.8 36 Oeste 49 Oeste 0 1011.3 -0.1 66
2017-12-13 07:00:00 13.5 36 Oeste 46 Oeste 0 1012.1 1.8 68
2017-12-13 06:00:00 12.6 24 Oeste 54 Oeste 0 1011.4 0.3 73
2017-12-13 05:00:00 12.6 30 Oeste 50 Oeste 0 1011.4 -0.2 70
2017-12-13 04:00:00 13.2 35 Oeste 62 Oeste 0 1010.3 -1.1 66
2017-12-13 03:00:00 13.3 30 Sudoeste 52 Sudoeste 0 1011.1 -0.2 65
2017-12-13 02:00:00 12.9 25 Sudoeste 51 Oeste 0 1011.6 -0.3 67
2017-12-13 01:00:00 13.1 22 Sudoeste 50 Oeste 0 1011.4 -0.7 63
2017-12-13 00:00:00 12.8 24 Sudoeste 43 Oeste 0 1011.3 -0.8 64
2017-12-12 23:00:00 12.2 17 Sudoeste 46 Sudoeste 0 1011.9 -0.2 65
2017-12-12 22:00:00 11.6 18 Sudoeste 38 Sudoeste 0 1012.1 0 64
2017-12-12 21:00:00 10.9 20 Sudoeste 41 Sudoeste 0 1012.1 0.1 62
2017-12-12 20:00:00 10.7 18 Sudoeste 33 Sudoeste 0 1012.1 0.6 64
2017-12-12 19:00:00 10.7 18 Sudoeste 33 Oeste 0 1012.1 0.9 66
2017-12-12 18:00:00 10.8 21 Sudoeste 38 Oeste 0 1012 1 67
2017-12-12 17:00:00 11 17 Oeste 30 Oeste 0 1011.5 0.1 68
2017-12-12 16:00:00 10.7 12 Sudoeste 22 Sudoeste 0 1011.2 0 72
2017-12-12 15:00:00 10.1 13 Sur 40 Oeste 0.2 1011 -0.2 75
2017-12-12 14:00:00 9.7 23 Oeste 41 Oeste 0 1011.4 1 75
2017-12-12 13:00:00 9.4 13 Sudoeste 35 Sudoeste 0 1011.2 1.3 79
2017-12-12 12:00:00 9.1 13 Sur 22 Sur 0 1011.2 2.3 78
2017-12-12 11:00:00 7.2 16 Sur 24 Sur 0.2 1010.4 2 84
2017-12-12 10:00:00 6.3 15 Sur 22 Sur 1.8 1009.9 2.3 86
2017-12-12 09:00:00 6.3 17 Sur 27 Sur 0.8 1008.9 2.5 85
2017-12-12 08:00:00 6.4 16 Sudeste 21 Sudeste 1.8 1008.4 2.9 85
2017-12-12 07:00:00 7.8 9 Oeste 45 Oeste 1.4 1007.6 2.5 80
2017-12-12 06:00:00 8.1 22 Oeste 45 Oeste 0 1006.4 1.9 79
2017-12-12 05:00:00 7.6 31 Oeste 55 Oeste 1 1005.5 1.5 81
2017-12-12 04:00:00 6.1 16 Sur 28 Oeste 1 1005.1 1.5 86
2017-12-12 03:00:00 7.5 11 Sudoeste 40 Sudoeste 2.2 1004.5 2.1 84
2017-12-12 02:00:00 7.8 19 Oeste 50 Oeste 0.4 1004 2.5 83
2017-12-12 01:00:00 7.6 10 Sur 31 Oeste 0.6 1003.6 3.7 82
2017-12-12 00:00:00 8.2 27 Oeste 54 Oeste 0.2 1002.4 3.9 83
2017-12-11 23:00:00 8.5 22 Oeste 76 Noroeste 1 1001.5 4.3 82
2017-12-11 22:00:00 10.3 40 Noroeste 73 Oeste 0.2 999.9 3.7 62
2017-12-11 21:00:00 9 29 Oeste 68 Oeste 0 998.5 3.6 76
2017-12-11 20:00:00 9.7 46 Noroeste 80 Noroeste 0 997.2 3.7 68
2017-12-11 19:00:00 9.2 32 Oeste 54 Noroeste 0 996.2 4.1 68
2017-12-11 18:00:00 9.8 42 Oeste 73 Noroeste 0 994.9 4 64
2017-12-11 17:00:00 9.8 36 Oeste 60 Noroeste 0 993.5 6.3 61
2017-12-11 16:00:00 9.2 47 Noroeste 98 Noroeste 0.6 992.1 4.2 54
2017-12-11 15:00:00 10 38 Oeste 102 Noroeste 3.2 990.9 3.4 64
2017-12-11 14:00:00 9.7 75 Noroeste 87 Noroeste 0.4 987.2 1.7 69
2017-12-11 13:00:00 7.5 39 Oeste 67 Oeste 3 987.9 4.4 82
2017-12-11 12:00:00 7.1 31 Oeste 67 Oeste 4.4 987.5 5.1 84
2017-12-11 11:00:00 7.8 40 Oeste 69 Oeste 0.8 985.5 4.3 79
2017-12-11 10:00:00 8.4 39 Oeste 65 Oeste 0.8 983.5 3 74
2017-12-11 09:00:00 8.3 47 Oeste 69 Oeste 0 982.4 2.7 74
2017-12-11 08:00:00 8.7 40 Oeste 86 Oeste 0.6 981.2 2 71
2017-12-11 07:00:00 8.7 45 Oeste 84 Noroeste 0.2 980.5 1.5 73
2017-12-11 06:00:00 9.7 57 Oeste 82 Oeste 0 979.7 1.9 67
2017-12-11 05:00:00 8.7 41 Oeste 72 Oeste 0.2 979.2 2.2 74
2017-12-11 04:00:00 9 44 Oeste 98 Oeste 1.8 979 2.7 81
2017-12-11 03:00:00 9.6 47 Oeste 71 Oeste 0.4 977.8 1.5 82
2017-12-11 02:00:00 9.3 49 Oeste 82 Oeste 2 977 1.8 85
2017-12-11 01:00:00 9.3 41 Oeste 65 Sudoeste 2.8 976.3 2 85
2017-12-11 00:00:00 9.2 36 Oeste 89 Oeste 3.2 976.3 2.9 78
2017-12-10 23:00:00 10.5 52 Oeste 85 Oeste 2.2 975.2 -0.6 80
2017-12-10 22:00:00 11.2 68 Oeste 133 Noroeste 1.6 974.3 -3.7 85
2017-12-10 21:00:00 15.9 48 Oeste 84 Oeste 0.2 973.4 -8.9 72
2017-12-10 20:00:00 15.8 52 Oeste 89 Oeste 2.2 975.8 -9.2 73
2017-12-10 19:00:00 16 55 Oeste 75 Oeste 2 978 -10.2 73
2017-12-10 18:00:00 14.7 30 Oeste 58 Sudoeste 0.6 982.3 -7.3 76
2017-12-10 17:00:00 14.4 27 Oeste 70 Oeste 0.2 985 -6.5 73
2017-12-10 16:00:00 13.9 48 Oeste 73 Oeste 0.8 988.2 -5.3 76
2017-12-10 15:00:00 14.2 58 Oeste 88 Sudoeste 1.2 989.6 -4.8 76
2017-12-10 14:00:00 13.8 46 Oeste 67 Oeste 1.6 991.5 -5 85
2017-12-10 13:00:00 13.5 40 Oeste 96 Oeste 7.2 993.5 -2.1 90
2017-12-10 12:00:00 13.4 61 Oeste 98 Oeste 5 994.4 -3.1 86
2017-12-10 11:00:00 16 27 Oeste 71 Oeste 1.4 996.5 -1.6 80
2017-12-10 10:00:00 16.5 52 Oeste 68 Oeste 0.6 995.6 -2.9 73
2017-12-10 09:00:00 15.8 54 Oeste 76 Oeste 1 997.5 -2.5 76
2017-12-10 08:00:00 15.8 53 Oeste 85 Oeste 0.6 998.1 -2.9 73
2017-12-10 07:00:00 17 62 Oeste 96 Sudoeste 0.6 998.5 -4.6 63
2017-12-10 06:00:00 16.8 49 Oeste 89 Oeste 0.4 1000 -4.4 62
2017-12-10 05:00:00 16.8 49 Oeste 78 Oeste 0 1001 -4 60
2017-12-10 04:00:00 16.7 58 Oeste 82 Oeste 0.4 1003.1 -3 62
2017-12-10 03:00:00 16.6 51 Oeste 75 Oeste 0.4 1004.4 -2.8 65
2017-12-10 02:00:00 16.6 52 Oeste 73 Oeste 0.4 1005 -3 65
2017-12-10 01:00:00 16.8 56 Oeste 80 Oeste 0 1006.1 -2.3 63
2017-12-10 00:00:00 16.7 47 Oeste 60 Oeste 0 1007.2 -1.7 65
2017-12-09 23:00:00 16.9 50 Oeste 61 Oeste 0 1008 -1 64
2017-12-09 22:00:00 16.7 45 Oeste 64 Oeste 0 1008.4 -1.2 67
2017-12-09 21:00:00 16.5 42 Oeste 75 Sudoeste 0.2 1008.9 -0.4 69
2017-12-09 20:00:00 16.5 49 Oeste 67 Oeste 0 1009 -1 70
2017-12-09 19:00:00 15.6 50 Oeste 77 Oeste 0 1009.6 -0.7 78
2017-12-09 18:00:00 16.1 50 Oeste 73 Oeste 0 1009.3 -1.9 73
2017-12-09 17:00:00 16.2 46 Oeste 60 Oeste 0 1010 -2.6 74
2017-12-09 16:00:00 15.5 41 Oeste 68 Oeste 0 1010.3 -4.1 78
2017-12-09 15:00:00 15.4 44 Oeste 58 Oeste 0 1011.2 -4.7 77
2017-12-09 14:00:00 14 19 Oeste 35 Oeste 0.2 1012.6 -4.2 85
2017-12-09 13:00:00 11.5 3 Sudoeste 11 Sudeste 0.2 1014.4 -2.7 90
2017-12-09 12:00:00 10.5 9 Este 17 Este 0.2 1015.9 -1.4 88
2017-12-09 11:00:00 10.2 9 Este 20 Sudeste 0.2 1016.8 -1.2 89
2017-12-09 10:00:00 9.6 14 Sudeste 19 Sudeste 0.4 1017.1 -1.2 89
2017-12-09 09:00:00 9.3 12 Sudeste 18 Sudeste 0.2 1017.3 -1.9 90
2017-12-09 08:00:00 9.1 9 Sudeste 13 Sur 0 1018 -1.5 91
2017-12-09 07:00:00 9 10 Sur 14 Sur 0.2 1018.3 -1.4 90
2017-12-09 06:00:00 9.5 8 Sur 13 Sur 0.6 1019.2 -0.7 89
2017-12-09 05:00:00 9.5 12 Sur 19 Sudeste 0 1019.5 -0.9 88
2017-12-09 04:00:00 9.8 14 Sudeste 22 Sudeste 0 1019.7 -1.2 86
2017-12-09 03:00:00 9.6 14 Sudeste 18 Sur 0 1019.9 -1.3 88
2017-12-09 02:00:00 9.5 14 Sudeste 19 Sudeste 0 1020.4 -1.1 89
2017-12-09 01:00:00 9.5 13 Sudeste 18 Sudeste 0 1020.9 -0.7 90
2017-12-09 00:00:00 9.5 9 Sudeste 15 Sudeste 0 1021.2 -0.4 91
2017-12-08 23:00:00 9.8 12 Sudeste 19 Nordeste 0 1021.5 0.1 91
2017-12-08 22:00:00 10 10 Este 21 Este 0.2 1021.6 0.6 92
2017-12-08 21:00:00 10 14 Este 28 Nordeste 0.4 1021.6 0.4 92
2017-12-08 20:00:00 10.3 9 Norte 24 Nordeste 0.4 1021.4 0.4 92
2017-12-08 19:00:00 10.4 3 Este 9 Oeste 0 1021 0.3 91
2017-12-08 18:00:00 10.1 5 Sudeste 11 Este 0.2 1021.2 0.6 90
2017-12-08 17:00:00 10.7 6 Este 23 Nordeste 0.4 1021 0 90
2017-12-08 16:00:00 10.8 7 Nordeste 25 Nordeste 1 1020.7 -0.7 91
2017-12-08 15:00:00 11 9 Norte 24 Nordeste 1.2 1020.6 -1.2 90
2017-12-08 14:00:00 11.5 4 Sur 13 Nordeste 1.4 1021 -0.5 90
2017-12-08 13:00:00 11.5 7 Nordeste 19 Nordeste 1.4 1021.4 0.6 90
2017-12-08 12:00:00 11.7 2 Este 8 Norte 2.2 1021.8 1.7 90
2017-12-08 11:00:00 11.7 5 Nordeste 21 Este 1.4 1021.5 1.8 90
2017-12-08 10:00:00 12 6 Sudoeste 23 Sudoeste 1.8 1020.8 1.5 91
2017-12-08 09:00:00 12.1 9 Noroeste 22 Noroeste 4.2 1020.1 0.8 92
2017-12-08 08:00:00 12.5 17 Noroeste 27 Oeste 2.4 1019.7 0.8 92
2017-12-08 07:00:00 13 19 Oeste 27 Oeste 0.2 1019.3 0.4 92
2017-12-08 06:00:00 13 19 Oeste 34 Oeste 0.2 1019.3 0.9 92
2017-12-08 05:00:00 13.1 16 Oeste 39 Oeste 0.4 1018.9 0.4 92
2017-12-08 04:00:00 13.1 23 Oeste 39 Oeste 1.4 1018.9 1 92
2017-12-08 03:00:00 13.3 25 Oeste 41 Oeste 0.4 1018.4 0.4 90
2017-12-08 02:00:00 13.9 24 Oeste 40 Oeste 0.4 1018.5 0.8 85
2017-12-08 01:00:00 15.4 30 Oeste 47 Oeste 0 1017.9 0.3 70
2017-12-08 00:00:00 15.6 33 Oeste 48 Oeste 0 1018 0.7 69
2017-12-07 23:00:00 15.7 28 Oeste 44 Sudoeste 0 1017.7 0.2 67
2017-12-07 22:00:00 15.8 26 Sudoeste 44 Oeste 0 1017.6 0.5 67
2017-12-07 21:00:00 15.8 28 Oeste 42 Oeste 0 1017.3 0.6 68
2017-12-07 20:00:00 15.5 22 Oeste 36 Oeste 0 1017.5 0.9 71
2017-12-07 19:00:00 15.4 30 Oeste 39 Oeste 0 1017.1 0.8 72
2017-12-07 18:00:00 14.9 26 Oeste 38 Oeste 0.2 1016.7 0.3 76
2017-12-07 17:00:00 14.8 27 Oeste 41 Oeste 0.4 1016.6 -0.7 75
2017-12-07 16:00:00 14.3 25 Sudoeste 65 Oeste 2.2 1016.3 -1.4 80
2017-12-07 15:00:00 16 26 Sudoeste 46 Oeste 0 1016.4 -1.7 68
2017-12-07 14:00:00 15.9 18 Sudoeste 44 Oeste 0 1017.3 -0.7 68
2017-12-07 13:00:00 17.7 23 Sudoeste 53 Oeste 0 1017.7 -0.4 53
2017-12-07 12:00:00 17 27 Sudoeste 48 Oeste 0 1018.1 0 54
2017-12-07 11:00:00 17 29 Oeste 53 Oeste 0 1018 -0.5 54
2017-12-07 10:00:00 15.8 19 Sudoeste 51 Sudoeste 0 1018.1 -0.4 57
2017-12-07 09:00:00 15.2 21 Sudoeste 45 Sudoeste 0 1018.1 -0.9 54
2017-12-07 08:00:00 15 21 Sudoeste 50 Oeste 0 1018.5 -0.7 48
2017-12-07 07:00:00 14.7 19 Sudoeste 45 Sudoeste 0 1018.5 -1.1 50
2017-12-07 06:00:00 13.8 19 Sudoeste 45 Oeste 0 1019 -0.7 56
2017-12-07 05:00:00 13.4 20 Sudoeste 45 Oeste 0 1019.2 -0.9 54
2017-12-07 04:00:00 9.8 11 Sur 18 Sur 0 1019.6 -1.2 58
2017-12-07 03:00:00 9.4 11 Sur 18 Sudeste 0 1019.7 -1 59
2017-12-07 02:00:00 9.2 16 Sudeste 21 Sudeste 0 1020.1 -0.9 60
2017-12-07 01:00:00 9.3 8 Sudeste 15 Sudeste 0 1020.8 -0.6 63
2017-12-07 00:00:00 9.4 12 Sudeste 18 Sudeste 0 1020.7 -0.9 62
2017-12-06 23:00:00 8.8 12 Sudeste 21 Sudeste 0 1021 -0.7 68
2017-12-06 22:00:00 8.7 15 Sudeste 20 Sur 0 1021.4 -0.5 71
2017-12-06 21:00:00 9.1 15 Sudeste 19 Sudeste 0 1021.6 -0.5 72
2017-12-06 20:00:00 9 13 Sudeste 20 Sudeste 0 1021.7 -0.8 74
2017-12-06 19:00:00 9.8 16 Sudeste 20 Sudeste 0 1021.9 -0.5 69
2017-12-06 18:00:00 10.2 14 Sudeste 19 Sudeste 0 1022.1 -0.8 64
2017-12-06 17:00:00 11.2 8 Sudeste 10 Sudeste 0 1022.5 -0.8 57
2017-12-06 16:00:00 11.7 7 Sudeste 10 Sudeste 0 1022.4 -1.3 62
2017-12-06 15:00:00 12.1 2 Norte 8 Noroeste 0 1022.9 -1.4 60
2017-12-06 14:00:00 12.1 3 Norte 7 Oeste 0 1023.3 -1.3 57
2017-12-06 13:00:00 12.2 2 Este 15 Sudeste 0 1023.7 -0.8 55
2017-12-06 12:00:00 10.5 10 Sudeste 23 Sudeste 0 1024.3 -0.1 60
2017-12-06 11:00:00 7.2 16 Sudeste 26 Sur 0 1024.6 0.1 67
2017-12-06 10:00:00 5.1 19 Sudeste 28 Sudeste 0 1024.5 0.1 70
2017-12-06 09:00:00 3.5 22 Sudeste 29 Sur 0 1024.4 -0.3 77
2017-12-06 08:00:00 4 22 Sudeste 29 Sudeste 0 1024.5 -0.6 75
2017-12-06 07:00:00 4.1 22 Sudeste 28 Sudeste 0 1024.4 -0.9 76
2017-12-06 06:00:00 4.5 21 Sudeste 26 Sur 0 1024.7 -0.6 76
2017-12-06 05:00:00 4.3 21 Sudeste 27 Sudeste 0 1025.1 -0.6 79
2017-12-06 04:00:00 4.4 22 Sur 26 Sudeste 0 1025.3 -0.7 79
2017-12-06 03:00:00 5 20 Sudeste 26 Sudeste 0 1025.3 -0.9 79
2017-12-06 02:00:00 5.1 20 Sudeste 25 Sudeste 0 1025.7 -0.6 79
2017-12-06 01:00:00 5.5 18 Sudeste 23 Sudeste 0 1026 -0.5 80
2017-12-06 00:00:00 5.6 18 Sudeste 22 Sudeste 0 1026.2 -0.4 82
2017-12-05 23:00:00 5.6 19 Sudeste 24 Sur 0 1026.3 0 84
2017-12-05 22:00:00 6.1 15 Sudeste 19 Sudeste 0 1026.5 0.2 83
2017-12-05 21:00:00 6.6 16 Sur 22 Sudeste 0 1026.6 0.2 83
2017-12-05 20:00:00 7.1 16 Sudeste 20 Sudeste 0 1026.3 0 83
2017-12-05 19:00:00 7.6 12 Sudeste 15 Sudeste 0 1026.3 -0.1 80
2017-12-05 18:00:00 10.2 5 Sudeste 27 Nordeste 0 1026.4 -0.5 69
2017-12-05 17:00:00 12.2 16 Este 26 Este 0 1026.3 -1.1 61
2017-12-05 16:00:00 12.5 14 Este 25 Nordeste 0 1026.4 -1.4 62
2017-12-05 15:00:00 12.8 3 Nordeste 9 Oeste 0 1026.9 -1.5 59
2017-12-05 14:00:00 11.7 -- -- -- -- 0 1027.4 -0.9 67
2017-12-05 13:00:00 10.4 -- -- -- -- 0 1027.8 -0.3 67
2017-12-05 12:00:00 9.3 -- -- -- -- 0 1028.4 0.7 69
2017-12-05 11:00:00 7.2 -- -- -- -- 0 1028.3 0.8 72
2017-12-05 10:00:00 5.1 -- -- -- -- 0 1028.1 0.7 78
2017-12-05 09:00:00 4.3 -- -- -- -- 0 1027.7 0.1 80
2017-12-05 08:00:00 4 -- -- -- -- 0 1027.5 -0.3 81
2017-12-05 07:00:00 4.5 -- -- -- -- 0 1027.4 -0.5 80
2017-12-05 06:00:00 4.5 -- -- -- -- 0 1027.6 -0.1 82
2017-12-05 05:00:00 4.7 -- -- -- -- 0 1027.8 -0.1 82
2017-12-05 04:00:00 5.2 -- -- -- -- 0 1027.9 -0.2 81
2017-12-05 03:00:00 5.7 -- -- -- -- 0 1027.7 -0.8 80
2017-12-05 02:00:00 5.9 -- -- -- -- 0 1027.9 -0.5 82
2017-12-05 01:00:00 6.5 -- -- -- -- 0 1028.1 -0.4 82
2017-12-05 00:00:00 7 -- -- -- -- 0 1028.5 0.2 82
2017-12-04 23:00:00 7.2 -- -- -- -- 0 1028.4 0 82
2017-12-04 22:00:00 8.4 -- -- -- -- 0 1028.5 0.3 81
2017-12-04 21:00:00 8.5 -- -- -- -- 0 1028.3 0.4 81
2017-12-04 20:00:00 9 -- -- -- -- 0 1028.4 0.7 78
2017-12-04 19:00:00 11.2 -- -- -- -- 0 1028.2 0.8 77
2017-12-04 18:00:00 11.9 -- -- -- -- 0 1027.9 0.5 75
2017-12-04 17:00:00 12.7 -- -- -- -- 0 1027.7 -0.1 70
2017-12-04 16:00:00 12.8 -- -- -- -- 0 1027.4 -1 68
2017-12-04 15:00:00 13.1 -- -- -- -- 0 1027.4 -1.4 66
2017-12-04 14:00:00 13 -- -- -- -- 0 1027.8 -1 64
2017-12-04 13:00:00 12.4 -- -- -- -- 0 1028.4 0.2 68
2017-12-04 12:00:00 11.6 -- -- -- -- 0 1028.8 1.1 67
2017-12-04 11:00:00 7.8 -- -- -- -- 0 1028.8 1.7 77
2017-12-04 10:00:00 5.9 -- -- -- -- 0 1028.2 1.6 80
2017-12-04 09:00:00 5.4 -- -- -- -- 0 1027.7 1.4 82
2017-12-04 08:00:00 5.9 -- -- -- -- 0 1027.1 0.5 81
2017-12-04 07:00:00 6.4 -- -- -- -- 0 1026.6 0 81
2017-12-04 06:00:00 7.1 -- -- -- -- 0 1026.3 0 79
2017-12-04 05:00:00 7.7 -- -- -- -- 0 1026.6 0.1 76
2017-12-04 04:00:00 7.8 -- -- -- -- 0 1026.6 0.2 76
2017-12-04 03:00:00 7.9 -- -- -- -- 0 1026.3 0.2 78
2017-12-04 02:00:00 8 -- -- -- -- 0 1026.5 0.5 79
2017-12-04 01:00:00 8.4 -- -- -- -- 0 1026.4 0.6 78
2017-12-04 00:00:00 8.5 -- -- -- -- 0 1026.1 0.5 79
2017-12-03 23:00:00 8.4 -- -- -- -- 0 1026 0.5 82
2017-12-03 22:00:00 7.7 -- -- -- -- 0 1025.8 0.6 83
2017-12-03 21:00:00 8.2 -- -- -- -- 0 1025.6 0.8 83
2017-12-03 20:00:00 9.5 -- -- -- -- 0 1025.5 1 78
2017-12-03 19:00:00 10.6 -- -- -- -- 0 1025.2 0.9 69
2017-12-03 18:00:00 10.3 -- -- -- -- 0 1024.8 0.3 70
2017-12-03 17:00:00 11 -- -- -- -- 0 1024.5 -0.5 63
2017-12-03 16:00:00 11.8 -- -- -- -- 0 1024.3 -1 60
2017-12-03 15:00:00 13 -- -- -- -- 0 1024.5 -1.2 57
2017-12-03 14:00:00 11.5 -- -- -- -- 0 1025 -0.6 68
2017-12-03 13:00:00 10.5 -- -- -- -- 0 1025.3 0.2 73
2017-12-03 12:00:00 9.3 -- -- -- -- 0 1025.7 1.1 75
2017-12-03 11:00:00 6.8 -- -- -- -- 0 1025.6 1.4 81
2017-12-03 10:00:00 5.9 -- -- -- -- 0 1025.1 1.4 83
2017-12-03 09:00:00 4.6 -- -- -- -- 0 1024.6 1.4 86
2017-12-03 08:00:00 4.8 -- -- -- -- 0 1024.2 0.9 87
2017-12-03 07:00:00 5.2 -- -- -- -- 0 1023.7 0.3 86
2017-12-03 06:00:00 5.3 -- -- -- -- 0 1023.2 0.2 87
2017-12-03 05:00:00 5.6 -- -- -- -- 0 1023.3 0.4 86
2017-12-03 04:00:00 6 -- -- -- -- 0.2 1023.4 0.4 87
2017-12-03 03:00:00 6 -- -- -- -- 0 1023 0.3 88
2017-12-03 02:00:00 6.2 -- -- -- -- 0.4 1022.9 0.2 88
2017-12-03 01:00:00 6.6 -- -- -- -- 0.6 1023 0.7 88
2017-12-03 00:00:00 6.6 -- -- -- -- 0 1022.7 0.5 88
2017-12-02 23:00:00 7 -- -- -- -- 0.6 1022.7 0.9 87
2017-12-02 22:00:00 7.7 -- -- -- -- 0.2 1022.3 0.7 84
2017-12-02 21:00:00 7.6 -- -- -- -- 0.4 1022.2 0.7 83
2017-12-02 20:00:00 7.6 -- -- -- -- 0 1021.8 0.8 83
2017-12-02 19:00:00 7.7 -- -- -- -- 0 1021.6 0.9 82
2017-12-02 18:00:00 9 -- -- -- -- 0 1021.5 0.6 71
2017-12-02 17:00:00 10.2 -- -- -- -- 0 1021 -0.3 67
2017-12-02 16:00:00 10.6 -- -- -- -- 0 1020.7 -0.8 67
2017-12-02 15:00:00 9.4 -- -- -- -- 2.4 1020.9 -0.7 72
2017-12-02 14:00:00 9.4 -- -- -- -- 0.6 1021.3 -0.2 71
2017-12-02 13:00:00 11.1 -- -- -- -- 0 1021.5 0.3 56
2017-12-02 12:00:00 10.4 -- -- -- -- 0 1021.6 0.7 63
2017-12-02 11:00:00 10 -- -- -- -- 0 1021.5 1.1 64
2017-12-02 10:00:00 9 -- -- -- -- 0.2 1021.2 0.8 70
2017-12-02 09:00:00 5.6 -- -- -- -- 1.6 1020.9 0.5 84
2017-12-02 08:00:00 6.6 -- -- -- -- 1 1020.4 0.2 80
2017-12-02 07:00:00 7.8 -- -- -- -- 0 1020.4 0.3 78
2017-12-02 06:00:00 5.6 -- -- -- -- 0 1020.4 0.2 82
2017-12-02 05:00:00 5.4 -- -- -- -- 0.2 1020.2 0.1 83
2017-12-02 04:00:00 9 -- -- -- -- 0 1020.1 0 68
2017-12-02 03:00:00 5.2 -- -- -- -- 0.4 1020.2 0.2 85
2017-12-02 02:00:00 5.2 -- -- -- -- 0 1020.1 -0.1 84
2017-12-02 01:00:00 5.5 -- -- -- -- 0.2 1020.1 0.4 83
2017-12-02 00:00:00 5.3 -- -- -- -- 0 1020 0.4 86
2017-12-01 23:00:00 5.8 -- -- -- -- 0.2 1020.2 1.3 83
2017-12-01 22:00:00 8.1 -- -- -- -- 0 1019.7 1.4 74
2017-12-01 21:00:00 5.6 -- -- -- -- 1.2 1019.6 1.8 82
2017-12-01 20:00:00 6.3 -- -- -- -- 0.2 1018.9 1.3 74
2017-12-01 19:00:00 9.4 -- -- -- -- 0 1018.3 1.1 53
2017-12-01 18:00:00 9.3 -- -- -- -- 0 1017.8 1.1 63
2017-12-01 17:00:00 9.7 -- -- -- -- 0 1017.6 1 64
2017-12-01 16:00:00 10.3 -- -- -- -- 0 1017.2 0.9 64
2017-12-01 15:00:00 9.3 -- -- -- -- 0 1016.7 0.2 71
2017-12-01 14:00:00 9 -- -- -- -- 0.4 1016.6 1.6 77
2017-12-01 13:00:00 7.7 -- -- -- -- 0.4 1016.3 1.8 83
2017-12-01 12:00:00 10 -- -- -- -- 0 1016.5 3 76
2017-12-01 11:00:00 9.4 -- -- -- -- 0.2 1015 2.8 83
2017-12-01 10:00:00 8.7 -- -- -- -- 4.2 1014.5 1.4 89
2017-12-01 09:00:00 9.5 -- -- -- -- 0.6 1013.5 0.2 86
2017-12-01 08:00:00 10.4 -- -- -- -- 1.4 1012.2 -1.4 76
2017-12-01 07:00:00 10.8 -- -- -- -- 0.4 1013.1 -0.7 77
2017-12-01 06:00:00 9.3 -- -- -- -- 3 1013.3 -1.1 86
2017-12-01 05:00:00 9.3 -- -- -- -- 1 1013.6 -1.2 83
2017-12-01 04:00:00 9.2 -- -- -- -- 0.2 1013.8 -1.6 79
2017-12-01 03:00:00 9 -- -- -- -- 0 1014.4 -0.8 81
2017-12-01 02:00:00 8.7 -- -- -- -- 0.2 1014.8 -0.7 82
2017-12-01 01:00:00 8.9 -- -- -- -- 1.2 1015.4 0.2 81
2017-12-01 00:00:00 9.2 -- -- -- -- 0.8 1015.2 -0.6 79
2017-11-30 23:00:00 9.4 -- -- -- -- 0 1015.5 -0.1 72
2017-11-30 22:00:00 9.9 -- -- -- -- 0.2 1015.2 0.3 73
2017-11-30 21:00:00 8.7 -- -- -- -- 0.2 1015.8 1.4 76
2017-11-30 20:00:00 8.2 -- -- -- -- 0.2 1015.6 1.3 81
2017-11-30 19:00:00 8.4 -- -- -- -- 0 1014.9 0.7 79
2017-11-30 18:00:00 8.6 -- -- -- -- 0.2 1014.4 0.6 80
2017-11-30 17:00:00 8.6 -- -- -- -- 0.6 1014.3 0.1 79
2017-11-30 16:00:00 9.5 -- -- -- -- 0 1014.2 -0.1 73
2017-11-30 15:00:00 9.2 -- -- -- -- 0.2 1013.8 -0.7 72
2017-11-30 14:00:00 10.2 -- -- -- -- 0 1014.2 -0.4 72
2017-11-30 13:00:00 9.1 -- -- -- -- 0 1014.3 0.6 78
2017-11-30 12:00:00 7.1 -- -- -- -- 0 1014.5 0.7 84
2017-11-30 11:00:00 6.6 -- -- -- -- 0.8 1014.6 2.3 84
2017-11-30 10:00:00 5.3 -- -- -- -- 1.4 1013.7 1.7 84
2017-11-30 09:00:00 6.5 -- -- -- -- 1.4 1013.8 2.2 85
2017-11-30 08:00:00 4 -- -- -- -- 0.2 1012.3 0.7 87
2017-11-30 07:00:00 4.7 -- -- -- -- 2 1012 0.9 88
2017-11-30 06:00:00 4.2 -- -- -- -- 0 1011.6 0.7 86
2017-11-30 05:00:00 4.8 -- -- -- -- 0 1011.6 0.5 84
2017-11-30 04:00:00 4.4 -- -- -- -- 0 1011.1 0 85
2017-11-30 03:00:00 4.5 -- -- -- -- 0.2 1010.9 0.5 87
2017-11-30 02:00:00 5.2 -- -- -- -- 0.2 1011.1 1 87
2017-11-30 01:00:00 5.5 8 Sudeste 28 Sudeste 1.6 1011.1 1.2 85
2017-11-30 00:00:00 5.1 21 Sudeste 31 Sudeste 0 1010.4 1 84
2017-11-29 23:00:00 5.5 23 Sudeste 34 Sudeste 0 1010.1 1.2 84
2017-11-29 22:00:00 5.9 18 Sur 23 Sur 1.2 1009.9 1.5 82
2017-11-29 21:00:00 5.7 17 Sur 27 Sudeste 0.6 1009.4 1.5 84
2017-11-29 20:00:00 6.4 19 Sudeste 33 Sudeste 0 1008.9 1.5 81
2017-11-29 19:00:00 8.1 14 Este 31 Nordeste 0 1008.4 1.2 76
2017-11-29 18:00:00 6.9 15 Sur -- -- 0 1007.9 1.3 82
2017-11-29 17:00:00 7.8 10 Sudeste 37 Nordeste 0 1007.4 0.7 79
2017-11-29 16:00:00 7.9 18 Noroeste 54 Noroeste 1 1007.2 0.5 80
2017-11-29 15:00:00 9.4 13 Sudoeste 41 Nordeste 1.4 1006.6 0 69
2017-11-29 14:00:00 10.5 13 Noroeste 43 Norte 0 1006.7 0.1 60
2017-11-29 13:00:00 10.2 22 Noroeste 41 Norte 0 1006.7 0.3 64
2017-11-29 12:00:00 10.1 30 Noroeste 52 Noroeste -- 1006.6 1 66
2017-11-29 11:00:00 10.4 23 Noroeste 46 Norte -- 1006.6 1.3 63
2017-11-29 10:00:00 10 31 Norte 59 Noroeste -- 1006.4 1 64
2017-11-29 09:00:00 8.5 15 Oeste 36 Sudoeste -- 1005.6 0.5 83
2017-11-29 08:00:00 7.5 14 Sur 21 Sur -- 1005.3 0.2 86
2017-11-29 07:00:00 7.9 12 Noroeste 55 Norte -- 1005.4 -0.3 84
2017-11-29 06:00:00 8.4 9 Sudoeste 50 Oeste -- 1005.1 -0.6 83
2017-11-29 05:00:00 8.4 13 Sudoeste 32 Oeste -- 1005.1 -1.1 83
2017-11-29 04:00:00 8.5 12 Oeste 28 Sudoeste -- 1005.7 -1.2 83
2017-11-29 03:00:00 8.8 16 Sudoeste 27 Oeste -- 1005.7 -1.5 83
2017-11-29 02:00:00 8.4 11 Sur 19 Sudoeste -- 1006.2 -1.3 88
2017-11-29 01:00:00 8.7 13 Sur 19 Sur -- 1006.9 -0.8 89
2017-11-29 00:00:00 8.9 14 Sur 17 Sur -- 1007.2 -0.9 89
2017-11-28 23:00:00 9.1 11 Sur 14 Sur -- 1007.5 -0.5 89
2017-11-28 22:00:00 9.2 10 Sur 15 Sudeste -- 1007.7 -0.4 88
2017-11-28 21:00:00 9.5 4 Sur 14 Sudeste -- 1008.1 0.4 88
2017-11-28 20:00:00 9.8 6 Sur 10 Sur -- 1008 0 86
2017-11-28 19:00:00 10.3 3 Sur 51 Oeste -- 1008.1 -0.2 86
2017-11-28 18:00:00 10.4 28 Oeste 59 Oeste -- 1007.7 -0.9 85
2017-11-28 17:00:00 12.1 21 Oeste 43 Oeste -- 1008 -1.3 68
2017-11-28 16:00:00 12.7 19 Oeste 40 Noroeste -- 1008.3 -1.9 63
2017-11-28 15:00:00 13.2 15 Oeste 44 Noroeste -- 1008.6 -2.9 61
2017-11-28 14:00:00 13.3 20 Oeste 49 Oeste -- 1009.3 -2.8 61
2017-11-28 13:00:00 13 17 Oeste 39 Oeste -- 1010.2 -2.4 60
2017-11-28 12:00:00 11.9 14 Sudoeste 23 Sur -- 1011.5 -1.1 60
2017-11-28 11:00:00 8.3 17 Sur 30 Sur -- 1012.1 -0.6 69
2017-11-28 10:00:00 7 19 Sur 28 Sur -- 1012.6 -0.3 70
2017-11-28 09:00:00 4.6 22 Sur 30 Sur -- 1012.6 -0.5 75
2017-11-28 08:00:00 4.5 21 Sur 27 Sur -- 1012.7 -0.9 76
2017-11-28 07:00:00 4.5 21 Sur 29 Sur -- 1012.9 -1.3 77
2017-11-28 06:00:00 4.2 23 Sur 31 Sur -- 1013.1 -1.6 79
2017-11-28 05:00:00 4.3 19 Sur 26 Sur -- 1013.6 -1.5 79
2017-11-28 04:00:00 4.3 18 Sur 27 Sur -- 1014.2 -1.7 81
2017-11-28 03:00:00 4.7 19 Sudeste 26 Sudeste -- 1014.7 -1.5 80
2017-11-28 02:00:00 5 20 Sudeste 27 Sudeste -- 1015.1 -1.7 80
2017-11-28 01:00:00 5.3 18 Sudeste 28 Sur -- 1015.9 -1.2 81
2017-11-28 00:00:00 5.3 22 Sur 27 Sur -- 1016.2 -1.1 82
2017-11-27 23:00:00 5.6 19 Sur 25 Sur -- 1016.8 -0.4 83
2017-11-27 22:00:00 6.3 16 Sur 20 Sur -- 1017.1 -0.2 82
2017-11-27 21:00:00 6.6 11 Sur 17 Sur -- 1017.3 -0.3 83
2017-11-27 20:00:00 7.1 13 Sur 17 Sudeste -- 1017.2 -0.8 83
2017-11-27 19:00:00 8.1 11 Sudeste 15 Sudeste -- 1017.3 -0.9 78
2017-11-27 18:00:00 9.7 8 Sudeste 10 Sudeste -- 1017.6 -0.9 73
2017-11-27 17:00:00 11.8 4 Este 12 Este -- 1018 -1.1 63
2017-11-27 16:00:00 12.7 2 Este 7 Oeste -- 1018.2 -1.7 63
2017-11-27 15:00:00 12.4 4 Oeste 13 Oeste -- 1018.5 -2.3 65
2017-11-27 14:00:00 11.6 7 Oeste 11 Oeste -- 1019.1 -2 65
2017-11-27 13:00:00 11.7 3 Sur 15 Sudeste -- 1019.9 -1.4 65
2017-11-27 12:00:00 10.2 13 Sur 21 Sudeste -- 1020.8 -0.4 68
2017-11-27 11:00:00 7.9 15 Sudeste 25 Sudeste -- 1021.1 0 71
2017-11-27 10:00:00 6.1 18 Sudeste 27 Sudeste -- 1021.3 0.3 75
2017-11-27 09:00:00 4.6 19 Sudeste 26 Sur -- 1021.2 -0.1 80
2017-11-27 08:00:00 5 19 Sudeste 29 Sudeste -- 1021.1 -0.4 79
2017-11-27 07:00:00 5.2 18 Sudeste 28 Sudeste -- 1021 -0.7 79
2017-11-27 06:00:00 5.5 18 Sudeste 27 Sudeste -- 1021.3 -0.8 79
2017-11-27 05:00:00 5.9 18 Sudeste 26 Sudeste -- 1021.5 -0.8 78
2017-11-27 04:00:00 6.1 19 Sudeste 27 Sudeste -- 1021.7 -1 78
2017-11-27 03:00:00 6.3 18 Sudeste 26 Sudeste -- 1022.1 -0.9 79
2017-11-27 02:00:00 6.3 19 Sudeste 28 Sudeste -- 1022.3 -1.2 79
2017-11-27 01:00:00 6.3 19 Sudeste 29 Sudeste -- 1022.7 -0.9 80
2017-11-27 00:00:00 6.6 19 Sudeste 30 Sudeste -- 1023 -0.3 80
2017-11-26 23:00:00 6.9 19 Sudeste 29 Sudeste -- 1023.5 -0.2 79
2017-11-26 22:00:00 7.3 18 Sudeste 24 Sudeste -- 1023.6 0 78
2017-11-26 21:00:00 7.9 14 Sudeste 20 Sudeste -- 1023.3 -0.3 75
2017-11-26 20:00:00 9.4 10 Sudeste 21 Este -- 1023.7 0.4 68
2017-11-26 19:00:00 10.7 15 Este 26 Nordeste -- 1023.6 0.5 66
2017-11-26 18:00:00 11.4 14 Este 43 Nordeste -- 1023.6 0.7 64
2017-11-26 17:00:00 12.4 19 Este 39 Este -- 1023.3 -0.2 61
2017-11-26 16:00:00 12.6 19 Nordeste 44 Nordeste -- 1023.1 -1.5 61
2017-11-26 15:00:00 12.5 23 Nordeste 48 Nordeste -- 1022.9 -2.5 62
2017-11-26 14:00:00 12.5 20 Nordeste 49 Norte -- 1023.5 -2 60
2017-11-26 13:00:00 12.6 17 Nordeste 38 Nordeste -- 1024.6 -0.7 59
2017-11-26 12:00:00 11.6 7 Este 21 Sudeste -- 1025.4 0.8 61
2017-11-26 11:00:00 9 16 Sudeste 28 Sudeste -- 1025.5 1.5 68
2017-11-26 10:00:00 6.7 19 Sudeste 29 Sudeste -- 1025.3 1.7 73
2017-11-26 09:00:00 4.8 21 Sudeste 30 Sudeste 0 1024.6 1.2 78
2017-11-26 08:00:00 4.7 22 Sudeste 30 Sudeste 0 1024 0.9 80
2017-11-26 07:00:00 5.1 22 Sudeste 32 Sudeste 0 1023.6 0.2 80
2017-11-26 06:00:00 5 22 Sudeste 28 Sudeste 0 1023.4 -0.3 81
2017-11-26 05:00:00 5.4 22 Sudeste 31 Sudeste 0 1023.1 -0.2 80
2017-11-26 04:00:00 5.5 22 Sudeste 30 Sudeste 0 1023.4 0 81
2017-11-26 03:00:00 5.9 20 Sudeste 29 Sudeste 0 1023.7 0.6 80
2017-11-26 02:00:00 6.2 21 Sudeste 30 Sudeste 0 1023.3 0.2 80
2017-11-26 01:00:00 6.4 21 Sudeste 28 Sudeste 0 1023.4 0.6 81
2017-11-26 00:00:00 7 19 Sudeste 26 Sudeste 0 1023.1 0.4 79
2017-11-25 23:00:00 7.3 19 Sudeste 26 Sudeste 0 1023.1 0.9 79
2017-11-25 22:00:00 7.7 18 Sudeste 25 Sudeste 0 1022.8 1.3 78
2017-11-25 21:00:00 8.2 18 Sudeste 25 Sudeste 0 1022.7 1.7 78
2017-11-25 20:00:00 8.7 16 Sudeste 22 Sudeste 0 1022.2 1.3 75
2017-11-25 19:00:00 10.1 9 Sudeste 28 Nordeste 0 1021.5 1 66
2017-11-25 18:00:00 11.4 9 Nordeste 30 Nordeste 0 1021 0.9 55
2017-11-25 17:00:00 11.5 15 Nordeste 34 Nordeste 0 1020.9 0.7 55
2017-11-25 16:00:00 11.8 9 Norte 40 Nordeste 0 1020.5 0.5 57
2017-11-25 15:00:00 11.9 10 Noroeste 36 Nordeste 0 1020.1 0.2 61
2017-11-25 14:00:00 11.8 10 Norte 39 Nordeste 0 1020.2 0.8 63
2017-11-25 13:00:00 11.9 8 Oeste 32 Nordeste 0 1020 1.1 62
2017-11-25 12:00:00 11.7 10 Oeste 47 Nordeste 0 1019.9 1.9 68
2017-11-25 11:00:00 11.6 10 Noroeste 36 Norte 0 1019.4 2.3 69
2017-11-25 10:00:00 10 7 Sudeste 19 Este 0 1018.9 2.7 86
2017-11-25 09:00:00 10 13 Sudeste 24 Este 0 1018 2.6 86
2017-11-25 08:00:00 10 12 Sur 18 Sudeste 0 1017.1 2.4 88
2017-11-25 07:00:00 10.4 8 Oeste 17 Sudoeste 0 1016.2 1.9 87
2017-11-25 06:00:00 10.4 8 Sur 27 Oeste 0 1015.4 1.7 87
2017-11-25 05:00:00 10.9 15 Oeste 28 Oeste 0 1014.7 1.5 88
2017-11-25 04:00:00 10.6 12 Sudoeste 44 Oeste 0 1014.3 1.2 90
2017-11-25 03:00:00 11 7 Sudoeste 13 Sur 0 1013.7 0.9 89
2017-11-25 02:00:00 11.1 9 Sur 12 Sur 0 1013.2 2 89
2017-11-25 01:00:00 11.4 5 Sur 20 Noroeste 0 1013.1 2.6 88
2017-11-25 00:00:00 11.5 18 Noroeste 49 Oeste 0 1012.8 3.2 89
2017-11-24 23:00:00 12.1 16 Oeste 51 Noroeste 0 1011.2 1.8 88
2017-11-24 22:00:00 12.3 10 Norte 28 Noroeste 0 1010.5 1.4 89
2017-11-24 21:00:00 13 6 Oeste 16 Oeste 0 1009.6 0.7 89
2017-11-24 20:00:00 13 7 Oeste 22 Oeste 0 1009.4 0.8 88
2017-11-24 19:00:00 13.2 5 Sudoeste 14 Oeste 0 1009.1 0.6 88
2017-11-24 18:00:00 13.3 7 Oeste 14 Sur 0 1008.9 0.1 87
2017-11-24 17:00:00 13.2 12 Sur 18 Sudeste 0 1008.6 -0.3 85
2017-11-24 16:00:00 13.7 4 Este 10 Sur 0 1008.5 -0.7 83
2017-11-24 15:00:00 13.9 4 Oeste 14 Sudoeste 0 1008.8 -0.9 80
2017-11-24 14:00:00 13.7 8 Sudoeste 18 Sur 0 1008.9 -0.2 75
2017-11-24 13:00:00 14.4 11 Sudoeste 19 Oeste 0 1009.2 0.8 75
2017-11-24 12:00:00 14.6 6 Oeste 18 Oeste 0 1009.7 2.2 79
2017-11-24 11:00:00 14.5 6 Oeste 17 Oeste 0 1009.1 1.2 84
2017-11-24 10:00:00 13.6 9 Oeste 32 Sur 0 1008.4 0.7 86
2017-11-24 09:00:00 12.7 21 Sur 31 Sudeste 0 1007.5 0.2 86
2017-11-24 08:00:00 12.5 9 Sur 31 Sudoeste 0 1007.9 0.9 85
2017-11-24 07:00:00 12.6 20 Oeste 32 Oeste 0 1007.7 1 86
2017-11-24 06:00:00 13.1 15 Oeste 26 Noroeste 0 1007.3 1.2 86
2017-11-24 05:00:00 13.4 13 Oeste 31 Oeste 0 1007 0.8 86
2017-11-24 04:00:00 14.2 15 Oeste 27 Noroeste 0 1006.7 0.7 86
2017-11-24 03:00:00 14.3 10 Oeste 26 Oeste 0 1006.1 0.3 84
2017-11-24 02:00:00 14.7 13 Oeste 25 Oeste 0 1006.2 0.8 85
2017-11-24 01:00:00 15.4 4 Sur 9 Oeste 0 1006 1.1 83
2017-11-24 00:00:00 15.5 5 Oeste 20 Oeste 0 1005.8 1.6 83
2017-11-23 23:00:00 16.7 7 Sudeste 39 Noroeste 0 1005.4 1.2 77
2017-11-23 22:00:00 18.1 20 Oeste 37 Oeste 0 1004.9 0.9 62
2017-11-23 21:00:00 16.7 18 Oeste 28 Oeste 0 1004.2 0.7 68
2017-11-23 20:00:00 15.6 7 Oeste 10 Sudoeste 0 1004.2 0.8 77
2017-11-23 19:00:00 15.4 2 Sur 15 Este 0 1004 1.1 78
2017-11-23 18:00:00 16.3 12 Este 15 Este 0 1003.5 0.7 75
2017-11-23 17:00:00 17.2 9 Este 26 Este 0 1003.4 0.7 71
2017-11-23 16:00:00 16.9 15 Este 27 Este 0 1002.9 0.1 74
2017-11-23 15:00:00 17.8 14 Este 25 Este 0 1002.8 -0.4 67
2017-11-23 14:00:00 19.1 15 Este 27 Este 0 1002.7 -0.5 60
2017-11-23 13:00:00 19.3 15 Este 28 Este 0 1002.8 0.7 57
2017-11-23 12:00:00 20.3 3 Este 14 Sudoeste 0 1003.2 1.5 48
2017-11-23 11:00:00 18.7 10 Oeste 50 Oeste 0 1003.2 2.1 56
2017-11-23 10:00:00 18 37 Oeste 58 Oeste 0 1002.1 2.1 56
2017-11-23 09:00:00 16.3 17 Oeste 34 Noroeste 0 1001.7 2.4 69
2017-11-23 08:00:00 17.2 26 Oeste 54 Oeste 0 1001.1 3 62
2017-11-23 07:00:00 17.7 27 Oeste 47 Oeste 0 1000 2.2 61
2017-11-23 06:00:00 17.8 30 Oeste 49 Oeste 0 999.3 2.2 59
2017-11-23 05:00:00 18.3 32 Oeste 46 Oeste 0 998.1 1.7 54
2017-11-23 04:00:00 19 24 Oeste 47 Oeste 0 997.8 1.8 49
2017-11-23 03:00:00 18.6 23 Oeste 42 Oeste 0 997.1 0.6 48
2017-11-23 02:00:00 18.3 23 Oeste 60 Oeste 0 996.4 0.5 52
2017-11-23 01:00:00 18 26 Oeste 62 Oeste 0 996 0.6 52
2017-11-23 00:00:00 17.8 27 Oeste 61 Sudoeste 0 996.5 2.1 55
2017-11-22 23:00:00 18.5 26 Sudoeste 93 Sudoeste 0 995.9 1.9 45
2017-11-22 22:00:00 18.2 44 Sudoeste 139 Oeste 0 995.4 1.6 43
2017-11-22 21:00:00 19.7 55 Oeste 128 Sudoeste 0 994.4 1.5 34
2017-11-22 20:00:00 22.1 40 Oeste 95 Oeste 0 994 -0.1 25
2017-11-22 19:00:00 22.6 38 Oeste 86 Sudoeste 0 993.8 -0.9 24
2017-11-22 18:00:00 22.9 35 Sudoeste 91 Oeste 0 992.9 -3.1 24
2017-11-22 17:00:00 22 19 Sur 56 Sur 0 994.1 -3.3 28
2017-11-22 16:00:00 23.9 23 Sudoeste 71 Sur 0 994.7 -2.6 25
2017-11-22 15:00:00 22.9 32 Sudoeste 93 Oeste 0 996 -2.6 25
2017-11-22 14:00:00 22.2 28 Sudoeste 109 Sudoeste 0 997.4 -1.4 26
2017-11-22 13:00:00 23.5 42 Oeste 76 Oeste 0 997.3 -1.8 25
2017-11-22 12:00:00 23.5 29 Sudoeste 83 Sur 0 998.6 -0.7 23
2017-11-22 11:00:00 22.7 20 Sur 41 Sur 0 998.8 -1.3 23
2017-11-22 10:00:00 21.3 23 Sur 46 Sur 0 999.1 -1.9 22
2017-11-22 09:00:00 20.2 27 Sur 49 Sudoeste 0 999.3 -1.9 23
2017-11-22 08:00:00 14.2 10 Este 19 Este 0 1000.1 -1.4 54
2017-11-22 07:00:00 13.6 6 Este 19 Sudoeste 0 1001 -1.6 48
2017-11-22 06:00:00 13.2 5 Norte 14 Este 0 1001.2 -2.2 59
2017-11-22 05:00:00 14.1 13 Este 18 Este 0 1001.5 -2.7 58
2017-11-22 04:00:00 12.5 9 Este 15 Sur 0 1002.6 -2.5 43
2017-11-22 03:00:00 10.8 5 Este 17 Sudeste 0 1003.4 -2 48
2017-11-22 02:00:00 11.5 11 Sudeste 19 Sudeste 0 1004.2 -1.9 45
2017-11-22 01:00:00 11.6 5 Sur 25 Sudeste 0 1005.1 -1.6 46
2017-11-22 00:00:00 12.8 19 Sudeste 33 Sudeste 0 1005.4 -1.7 40
2017-11-21 23:00:00 12.3 20 Sudeste 31 Sudeste 0 1006.1 -1.4 46
2017-11-21 22:00:00 12.2 19 Sudeste 30 Sur 0 1006.7 -1 50
2017-11-21 21:00:00 12.9 24 Sudeste 35 Sudeste 0 1007.1 -1.1 54
2017-11-21 20:00:00 12.9 23 Sudeste 30 Sudeste 0 1007.5 -1.1 58
2017-11-21 19:00:00 14 19 Sudeste 26 Sudeste 0 1007.7 -0.9 55
2017-11-21 18:00:00 15.1 12 Sudeste 16 Sudeste 0 1008.2 -1 47
2017-11-21 17:00:00 16.1 8 Este 17 Este 0 1008.6 -1.3 48
2017-11-21 16:00:00 18.1 7 Este 16 Sudeste 0 1008.6 -2.1 37
2017-11-21 15:00:00 17.6 8 Este 19 Nordeste 0 1009.2 -2.4 51
2017-11-21 14:00:00 17.8 8 Este 12 Este 0 1009.9 -1.8 37
2017-11-21 13:00:00 18.1 6 Nordeste 13 Sur 0 1010.7 -1.3 39
2017-11-21 12:00:00 17.2 6 Sudeste 26 Sudeste 0 1011.6 -0.6 39
2017-11-21 11:00:00 13.6 21 Sudeste 28 Sudeste 0 1011.7 -0.4 45
2017-11-21 10:00:00 11.3 21 Sudeste 30 Sudeste 0 1012 -0.1 50
2017-11-21 09:00:00 9.4 24 Sudeste 35 Sudeste 0 1012.2 0 53
2017-11-21 08:00:00 9 24 Sudeste 30 Sudeste 0 1012.1 0.1 54
2017-11-21 07:00:00 8.6 21 Sudeste 29 Sudeste 0 1012.1 0.4 58
2017-11-21 06:00:00 8.7 22 Sudeste 27 Sudeste 0 1012.2 0.1 58
2017-11-21 05:00:00 8.7 21 Sudeste 28 Sudeste 0 1012 -0.4 60
2017-11-21 04:00:00 10.1 20 Sudeste 29 Sudeste 0 1011.7 -1 54
2017-11-21 03:00:00 10.4 22 Sudeste 33 Sudeste 0 1012.1 -1.2 54
2017-11-21 02:00:00 10.1 21 Sudeste 33 Sudeste 0 1012.4 -1.2 57
2017-11-21 01:00:00 10.5 23 Sudeste 30 Sudeste 0 1012.7 -1.1 59
2017-11-21 00:00:00 10.4 22 Sudeste 29 Sudeste 0 1013.3 -0.7 63
2017-11-20 23:00:00 10.5 19 Sudeste 26 Sudeste 0 1013.6 -0.4 66
2017-11-20 22:00:00 10.3 18 Sudeste 24 Sudeste 0 1013.8 0.2 68
2017-11-20 21:00:00 10.7 17 Sur 26 Sur 0 1014 0.7 68
2017-11-20 20:00:00 11.7 19 Sudeste 26 Sudeste 0 1014 0.9 65
2017-11-20 19:00:00 12.2 16 Sudeste 21 Sudeste 0 1013.6 0.7 64
2017-11-20 18:00:00 13.6 5 Sudeste 8 Este 0 1013.3 0.2 63
2017-11-20 17:00:00 15.7 7 Sudeste 15 Sudeste 0 1013.1 -0.5 55
2017-11-20 16:00:00 18 5 Este 8 Sudeste 0 1012.9 -1.1 40
2017-11-20 15:00:00 17.1 2 Norte 5 Nordeste 0 1013.1 -1.5 47
2017-11-20 14:00:00 17.2 4 Este 10 Este 0 1013.6 -1.4 47
2017-11-20 13:00:00 16.4 5 Este 11 Sudeste 0 1014 -0.7 56
2017-11-20 12:00:00 15.6 9 Sur 21 Sur 0 1014.6 0.2 51
2017-11-20 11:00:00 12.4 17 Sudeste 26 Sur 0 1015 0.9 57
2017-11-20 10:00:00 9.7 21 Sudeste 28 Sudeste 0 1014.7 0.8 62
2017-11-20 09:00:00 7.8 22 Sudeste 29 Sudeste 0 1014.4 0.7 66
2017-11-20 08:00:00 7.9 19 Sudeste 27 Sudeste 0 1014.1 0.6 64
2017-11-20 07:00:00 7.2 21 Sur 27 Sur 0 1013.9 0 67
2017-11-20 06:00:00 7.7 17 Sur 25 Sur 0 1013.7 -0.7 64
2017-11-20 05:00:00 7.5 15 Sur 30 Sur 0 1013.5 -1.3 66
2017-11-20 04:00:00 7.7 22 Sudeste 30 Sudeste 0 1013.9 -1.1 66
2017-11-20 03:00:00 6.8 19 Sur 26 Sudeste 0 1014.4 -0.9 70
2017-11-20 02:00:00 7.7 15 Sudeste 31 Sudeste 0 1014.8 -0.8 66
2017-11-20 01:00:00 7.3 24 Sudeste 32 Sur 0 1015 -0.5 70
2017-11-20 00:00:00 7.3 20 Sudeste 26 Sudeste 0 1015.3 0.5 72
2017-11-19 23:00:00 7.3 20 Sudeste 24 Sudeste 0 1015.6 0.9 75
2017-11-19 22:00:00 7.8 14 Sudeste 17 Sudeste 0 1015.5 1 76
2017-11-19 21:00:00 8.4 12 Sur 17 Sur 0 1014.8 0.2 74
2017-11-19 20:00:00 9.2 12 Sur 17 Sudeste 0 1014.7 0.1 73
2017-11-19 19:00:00 11.9 14 Sudeste 29 Este 0 1014.5 0 71
2017-11-19 18:00:00 13.4 17 Este 42 Este 0 1014.6 0 69
2017-11-19 17:00:00 14.2 22 Este 41 Este 0 1014.6 -0.4 69
2017-11-19 16:00:00 14.4 20 Este 44 Nordeste 0 1014.5 -1.2 66
2017-11-19 15:00:00 14.2 20 Nordeste 42 Nordeste 0 1014.6 -1.6 66
2017-11-19 14:00:00 13.8 21 Este 46 Nordeste 0 1015 -1.4 64
2017-11-19 13:00:00 13.5 21 Este 34 Este 0 1015.7 -0.4 65
2017-11-19 12:00:00 13.2 9 Este 18 Sudeste 0 1016.2 0.5 62
2017-11-19 11:00:00 10.3 14 Sudeste 21 Sudeste 0 1016.4 1.4 71
2017-11-19 10:00:00 8.9 14 Sudeste 25 Sudeste 0 1016.1 0.9 74
2017-11-19 09:00:00 7.4 18 Sudeste 30 Sudeste 0 1015.7 0.7 78
2017-11-19 08:00:00 6.6 22 Sudeste 31 Sudeste 0 1015 0.3 83
2017-11-19 07:00:00 6.8 17 Sudeste 24 Sudeste 0 1015.2 0.3 84
2017-11-19 06:00:00 6.9 17 Sudeste 21 Sur 0 1015 0 85
2017-11-19 05:00:00 8.6 13 Sudeste 27 Sudeste 0 1014.7 -0.5 81
2017-11-19 04:00:00 8.7 19 Sudeste 26 Sudeste 0 1014.9 -0.4 82
2017-11-19 03:00:00 8.8 17 Sudeste 22 Sudeste 0 1015 -0.2 81
2017-11-19 02:00:00 9.8 13 Sudeste 23 Sudeste 0 1015.2 0.2 83
2017-11-19 01:00:00 9.5 14 Sudeste 19 Sudeste 0 1015.3 0.2 82
2017-11-19 00:00:00 10.2 11 Sudeste 23 Sudeste 0 1015.2 0 80
2017-11-18 23:00:00 10.9 12 Sudeste 22 Sudeste 0 1015 -0.5 80
2017-11-18 22:00:00 10.9 8 Sudeste 19 Este 0 1015.1 -0.3 79
2017-11-18 21:00:00 12.3 11 Este 34 Nordeste 0 1015.2 -0.2 77
2017-11-18 20:00:00 13 21 Este 41 Este 0 1015.5 0.6 75
2017-11-18 19:00:00 13.2 19 Este 39 Este 0 1015.4 0.7 76
2017-11-18 18:00:00 13.8 20 Nordeste 46 Nordeste 0 1015.4 1 75
2017-11-18 17:00:00 14.4 26 Nordeste 59 Nordeste 0 1014.9 0 74
2017-11-18 16:00:00 14.7 28 Nordeste 62 Nordeste 0 1014.7 -1 71
2017-11-18 15:00:00 15.1 28 Nordeste 54 Nordeste 0 1014.4 -1.9 70
2017-11-18 14:00:00 15.1 24 Nordeste 45 Nordeste 0 1014.9 -1.7 70
2017-11-18 13:00:00 14.7 26 Este 49 Nordeste 0 1015.7 -0.7 67
2017-11-18 12:00:00 14.6 24 Este 41 Este 0 1016.3 0.3 67
2017-11-18 11:00:00 14.3 9 Este 22 Sudeste 0 1016.6 1.3 69
2017-11-18 10:00:00 11.2 14 Sudeste 25 Sudeste 0 1016.4 1.1 74
2017-11-18 09:00:00 9.5 18 Sudeste 30 Sudeste 0 1016 0.2 80
2017-11-18 08:00:00 9.2 22 Sudeste 31 Sudeste 0 1015.3 -0.3 82
2017-11-18 07:00:00 9 20 Sudeste 31 Sudeste 0 1015.3 -0.6 82
2017-11-18 06:00:00 8.8 17 Sudeste 28 Sudeste 0 1015.8 0.4 82
2017-11-18 05:00:00 9.2 15 Sudeste 23 Sudeste 0 1015.6 -0.3 83
2017-11-18 04:00:00 9.2 12 Sudeste 20 Sudeste 0 1015.9 -0.4 82
2017-11-18 03:00:00 9.5 14 Sudeste 25 Sudeste 0 1015.4 -0.9 83
2017-11-18 02:00:00 9.5 16 Sudeste 22 Sudeste 0 1015.9 -0.6 84
2017-11-18 01:00:00 10.6 11 Sudeste 20 Sudeste 0 1016.3 0.5 81
2017-11-18 00:00:00 11 13 Sudeste 17 Sudeste 0 1016.3 0.5 79
2017-11-17 23:00:00 12.2 10 Sudeste 15 Sudeste 0 1016.5 0.5 75
2017-11-17 22:00:00 12.5 10 Sudeste 15 Sudeste 0 1015.8 0.1 74
2017-11-17 21:00:00 13.1 8 Este 14 Este 0 1015.8 0.3 75
2017-11-17 20:00:00 13.7 7 Este 17 Este 0 1016 0.7 75
2017-11-17 19:00:00 13.9 9 Este 15 Este 0 1015.7 0.6 73
2017-11-17 18:00:00 13.9 9 Sudeste 32 Este 0 1015.5 0.3 68
2017-11-17 17:00:00 14.3 15 Este 30 Este 0 1015.3 0 67
2017-11-17 16:00:00 14.5 12 Nordeste 32 Nordeste 0 1015.1 -0.6 70
2017-11-17 15:00:00 14.7 13 Nordeste 33 Nordeste 0 1015.2 -1.1 69
2017-11-17 14:00:00 14.7 13 Nordeste 31 Nordeste 0 1015.3 -1.1 70
2017-11-17 13:00:00 14.7 14 Nordeste 27 Nordeste 0 1015.7 -0.7 69
2017-11-17 12:00:00 14.2 12 Sudeste 24 Sur 0 1016.3 0.1 69
2017-11-17 11:00:00 13.1 14 Sudeste 23 Sur 0 1016.4 0.6 75
2017-11-17 10:00:00 12 14 Sudeste 23 Sudeste 0 1016.4 1 78
2017-11-17 09:00:00 11.6 14 Sudeste 22 Sudeste 0 1016.2 0.9 79
2017-11-17 08:00:00 11.6 15 Sudeste 24 Sudeste 0 1015.8 0.6 78
2017-11-17 07:00:00 11.3 16 Sudeste 24 Sudeste 0 1015.4 0 80
2017-11-17 06:00:00 11.2 17 Sudeste 24 Sudeste 0 1015.3 -0.1 81
2017-11-17 05:00:00 11 17 Sudeste 23 Sudeste 0 1015.2 -0.4 82
2017-11-17 04:00:00 10.8 15 Sudeste 23 Sudeste 0 1015.4 -0.3 84
2017-11-17 03:00:00 11 16 Sudeste 22 Sudeste 0 1015.4 -0.3 84
2017-11-17 02:00:00 11.3 15 Sudeste 23 Sudeste 0 1015.6 0 85
2017-11-17 01:00:00 10.7 16 Sudeste 23 Sudeste 0 1015.7 0.2 87
2017-11-17 00:00:00 10.6 16 Sudeste 21 Sudeste 0 1015.7 0.3 87